createdAt,value
2023-05-06T00:00:32.023Z,55.12
2023-05-06T00:02:33.720Z,55.59
2023-05-06T00:04:35.502Z,55.03
2023-05-06T00:06:41.392Z,55.25
2023-05-06T00:08:44.216Z,54.76
2023-05-06T00:10:49.760Z,54.88
2023-05-06T00:12:51.340Z,54.86
2023-05-06T00:14:53.346Z,54.59
2023-05-06T00:16:56.986Z,55.15
2023-05-06T00:18:58.579Z,54.96
2023-05-06T00:21:00.402Z,55.73
2023-05-06T00:23:02.020Z,55.54
2023-05-06T00:25:04.156Z,55.07
2023-05-06T00:27:07.721Z,55.21
2023-05-06T00:29:09.341Z,55.19
2023-05-06T00:31:10.962Z,54.91
2023-05-06T00:33:12.888Z,55.12
2023-05-06T00:35:14.515Z,54.87
2023-05-06T00:37:16.386Z,54.61
2023-05-06T00:39:18.159Z,55.14
2023-05-06T00:41:19.830Z,54.90
2023-05-06T00:43:23.024Z,55.15
2023-05-06T00:45:25.811Z,55.06
2023-05-06T00:47:27.860Z,54.96
2023-05-06T00:49:30.504Z,54.96
2023-05-06T00:51:33.388Z,54.81
2023-05-06T00:53:35.813Z,55.17
2023-05-06T00:55:39.939Z,54.83
2023-05-06T00:57:42.403Z,55.02
2023-05-06T00:59:45.399Z,55.57
2023-05-06T01:01:47.124Z,54.84
2023-05-06T01:03:51.150Z,55.36
2023-05-06T01:06:04.633Z,54.96
2023-05-06T01:08:13.136Z,55.23
2023-05-06T01:10:24.722Z,55.30
2023-05-06T01:12:30.920Z,54.85
2023-05-06T01:14:40.326Z,54.75
2023-05-06T01:16:45.193Z,55.11
2023-05-06T01:18:49.785Z,55.32
2023-05-06T01:20:53.935Z,54.51
2023-05-06T01:22:56.143Z,54.54
2023-05-06T01:24:59.054Z,54.73
2023-05-06T01:27:00.688Z,54.99
2023-05-06T01:29:03.159Z,55.00
2023-05-06T01:31:10.163Z,54.94
2023-05-06T01:33:18.346Z,55.49
2023-05-06T01:35:25.324Z,55.47
2023-05-06T01:37:34.841Z,54.89
2023-05-06T01:39:37.770Z,55.02
2023-05-06T01:41:43.283Z,54.57
2023-05-06T01:43:48.207Z,54.42
2023-05-06T01:45:54.098Z,55.48
2023-05-06T01:47:56.929Z,55.52
2023-05-06T01:49:59.390Z,55.91
2023-05-06T01:52:02.272Z,55.64
2023-05-06T01:54:04.944Z,54.98
2023-05-06T01:56:07.313Z,54.58
2023-05-06T01:58:10.332Z,55.67
2023-05-06T02:00:12.732Z,55.23
2023-05-06T02:02:14.189Z,55.79
2023-05-06T02:04:15.974Z,55.22
2023-05-06T02:06:17.844Z,55.06
2023-05-06T02:08:19.437Z,55.35
2023-05-06T02:10:21.382Z,55.31
2023-05-06T02:12:23.009Z,55.17
2023-05-06T02:14:26.073Z,55.63
2023-05-06T02:16:28.042Z,55.67
2023-05-06T02:18:29.988Z,55.59
2023-05-06T02:20:31.945Z,55.63
2023-05-06T02:22:33.753Z,55.59
2023-05-06T02:24:35.348Z,55.92
2023-05-06T02:26:37.007Z,56.11
2023-05-06T02:28:38.472Z,55.76
2023-05-06T02:30:41.456Z,56.08
2023-05-06T02:32:43.263Z,56.12
2023-05-06T02:34:44.831Z,55.77
2023-05-06T02:36:46.715Z,56.57
2023-05-06T02:38:48.569Z,55.73
2023-05-06T02:40:52.855Z,55.99
2023-05-06T02:42:54.795Z,56.38
2023-05-06T02:44:56.719Z,56.80
2023-05-06T02:46:59.658Z,56.24
2023-05-06T02:49:01.536Z,56.84
2023-05-06T02:51:05.127Z,57.74
2023-05-06T02:53:07.204Z,56.62
2023-05-06T02:55:09.168Z,57.65
2023-05-06T02:57:11.022Z,57.29
2023-05-06T02:59:12.575Z,56.85
2023-05-06T03:01:14.230Z,58.43
2023-05-06T03:03:17.490Z,59.25
2023-05-06T03:05:19.328Z,59.22
2023-05-06T03:07:20.902Z,58.70
2023-05-06T03:09:23.255Z,59.12
2023-05-06T03:11:25.124Z,59.76
2023-05-06T03:13:26.701Z,59.08
2023-05-06T03:15:28.532Z,59.34
2023-05-06T03:17:30.143Z,59.54
2023-05-06T03:19:33.320Z,59.02
2023-05-06T03:21:34.961Z,59.22
2023-05-06T03:23:36.695Z,59.74
2023-05-06T03:25:38.515Z,59.72
2023-05-06T03:27:40.151Z,59.25
2023-05-06T03:29:41.782Z,58.54
2023-05-06T03:31:43.416Z,59.63
2023-05-06T03:33:44.945Z,58.72
2023-05-06T03:35:47.997Z,59.21
2023-05-06T03:37:49.590Z,58.57
2023-05-06T03:39:52.303Z,59.20
2023-05-06T03:41:54.678Z,59.42
2023-05-06T03:43:59.058Z,59.44
2023-05-06T03:46:00.704Z,59.20
2023-05-06T03:48:02.637Z,59.44
2023-05-06T03:50:05.069Z,60.18
2023-05-06T03:52:08.368Z,60.00
2023-05-06T03:54:10.515Z,60.39
2023-05-06T03:56:12.582Z,59.53
2023-05-06T03:58:14.436Z,59.74
2023-05-06T04:00:16.500Z,59.44
2023-05-06T04:02:18.337Z,60.12
2023-05-06T04:04:20.184Z,60.26
2023-05-06T04:06:23.616Z,60.37
2023-05-06T04:08:29.429Z,60.15
2023-05-06T04:10:31.021Z,60.48
2023-05-06T04:12:32.920Z,60.58
2023-05-06T04:14:35.192Z,59.68
2023-05-06T04:16:38.672Z,61.16
2023-05-06T04:18:40.404Z,61.63
2023-05-06T04:20:42.355Z,60.72
2023-05-06T04:22:44.185Z,61.49
2023-05-06T04:24:47.434Z,61.07
2023-05-06T04:26:49.021Z,61.10
2023-05-06T04:28:50.626Z,61.25
2023-05-06T04:30:52.426Z,61.54
2023-05-06T04:32:54.269Z,61.88
2023-05-06T04:34:56.239Z,61.86
2023-05-06T04:36:57.902Z,62.49
2023-05-06T04:38:59.573Z,62.38
2023-05-06T04:41:03.154Z,61.62
2023-05-06T04:43:04.700Z,61.78
2023-05-06T04:45:07.474Z,62.01
2023-05-06T04:47:09.590Z,62.04
2023-05-06T04:49:12.529Z,62.15
2023-05-06T04:51:14.529Z,61.65
2023-05-06T04:53:16.874Z,61.95
2023-05-06T04:55:18.899Z,61.09
2023-05-06T04:57:22.102Z,61.63
2023-05-06T04:59:23.956Z,62.10
2023-05-06T05:01:26.681Z,62.44
2023-05-06T05:03:28.747Z,60.83
2023-05-06T05:05:33.677Z,62.35
2023-05-06T05:07:35.267Z,61.77
2023-05-06T05:09:36.960Z,62.57
2023-05-06T05:11:38.548Z,62.23
2023-05-06T05:13:41.570Z,62.69
2023-05-06T05:15:43.564Z,62.46
2023-05-06T05:17:45.438Z,61.78
2023-05-06T05:19:47.443Z,61.90
2023-05-06T05:21:49.847Z,61.82
2023-05-06T05:23:51.455Z,62.05
2023-05-06T05:25:53.052Z,61.39
2023-05-06T05:27:54.664Z,61.27
2023-05-06T05:29:58.454Z,61.21
2023-05-06T05:32:00.043Z,62.10
2023-05-06T05:34:02.059Z,62.10
2023-05-06T05:36:04.588Z,62.18
2023-05-06T05:38:06.231Z,62.38
2023-05-06T05:40:09.542Z,62.34
2023-05-06T05:42:11.370Z,63.06
2023-05-06T05:44:13.461Z,63.22
2023-05-06T05:46:16.719Z,62.48
2023-05-06T05:48:20.103Z,62.49
2023-05-06T05:50:22.327Z,62.18
2023-05-06T05:52:24.196Z,62.96
2023-05-06T05:54:25.865Z,63.02
2023-05-06T05:56:27.399Z,62.52
2023-05-06T05:58:28.929Z,62.84
2023-05-06T06:00:30.811Z,63.83
2023-05-06T06:02:33.978Z,64.11
2023-05-06T06:04:35.632Z,63.32
2023-05-06T06:06:37.479Z,63.93
2023-05-06T06:08:41.417Z,63.41
2023-05-06T06:10:43.241Z,64.46
2023-05-06T06:12:45.178Z,65.51
2023-05-06T06:14:46.766Z,64.61
2023-05-06T06:16:48.499Z,64.25
2023-05-06T06:18:51.627Z,64.67
2023-05-06T06:20:53.787Z,64.61
2023-05-06T06:22:55.501Z,64.61
2023-05-06T06:24:58.729Z,65.38
2023-05-06T06:27:03.099Z,65.26
2023-05-06T06:29:04.967Z,65.26
2023-05-06T06:31:06.832Z,65.52
2023-05-06T06:33:08.679Z,65.04
2023-05-06T06:35:12.055Z,65.35
2023-05-06T06:37:13.720Z,65.25
2023-05-06T06:39:15.558Z,65.36
2023-05-06T06:41:17.989Z,65.71
2023-05-06T06:43:19.772Z,65.24
2023-05-06T06:45:22.728Z,65.40
2023-05-06T06:47:24.567Z,64.48
2023-05-06T06:49:27.534Z,64.72
2023-05-06T06:51:30.502Z,64.27
2023-05-06T06:53:32.612Z,64.46
2023-05-06T06:55:34.381Z,64.92
2023-05-06T06:57:36.542Z,64.87
2023-05-06T06:59:38.142Z,65.93
2023-05-06T07:01:40.956Z,65.40
2023-05-06T07:03:42.685Z,65.20
2023-05-06T07:05:44.367Z,64.91
2023-05-06T07:07:47.803Z,64.78
2023-05-06T07:09:49.697Z,63.76
2023-05-06T07:11:51.475Z,63.80
2023-05-06T07:13:53.389Z,64.51
2023-05-06T07:15:55.289Z,64.62
2023-05-06T07:17:57.073Z,64.83
2023-05-06T07:19:58.973Z,64.90
2023-05-06T07:22:00.941Z,64.84
2023-05-06T07:24:05.665Z,64.06
2023-05-06T07:26:08.397Z,64.43
2023-05-06T07:28:11.918Z,64.46
2023-05-06T07:30:14.539Z,64.96
2023-05-06T07:32:16.452Z,65.31
2023-05-06T07:34:18.135Z,65.56
2023-05-06T07:36:21.192Z,65.87
2023-05-06T07:38:23.690Z,65.63
2023-05-06T07:40:26.571Z,65.59
2023-05-06T07:42:28.473Z,65.66
2023-05-06T07:44:30.118Z,65.59
2023-05-06T07:46:31.945Z,65.42
2023-05-06T07:48:33.853Z,64.88
2023-05-06T07:50:35.571Z,64.98
2023-05-06T07:52:37.413Z,65.53
2023-05-06T07:54:39.023Z,66.67
2023-05-06T07:56:42.097Z,65.55
2023-05-06T07:58:43.959Z,66.22
2023-05-06T08:00:46.080Z,67.36
2023-05-06T08:02:47.927Z,66.40
2023-05-06T08:04:52.898Z,65.63
2023-05-06T08:06:54.559Z,65.30
2023-05-06T08:08:56.513Z,66.18
2023-05-06T08:10:58.915Z,65.33
2023-05-06T08:13:02.008Z,66.18
2023-05-06T08:15:04.320Z,66.33
2023-05-06T08:17:05.840Z,66.16
2023-05-06T08:19:07.646Z,65.94
2023-05-06T08:21:09.306Z,66.78
2023-05-06T08:23:11.122Z,66.09
2023-05-06T08:25:12.905Z,66.11
2023-05-06T08:27:14.947Z,66.50
2023-05-06T08:29:18.532Z,66.51
2023-05-06T08:31:20.415Z,67.21
2023-05-06T08:33:23.268Z,65.95
2023-05-06T08:35:25.136Z,64.81
2023-05-06T08:37:27.148Z,66.10
2023-05-06T08:39:28.674Z,66.11
2023-05-06T08:41:31.255Z,65.75
2023-05-06T08:43:40.227Z,64.83
2023-05-06T08:45:43.646Z,65.39
2023-05-06T08:47:46.690Z,65.36
2023-05-06T08:49:48.937Z,66.93
2023-05-06T08:51:52.037Z,66.87
2023-05-06T08:53:57.849Z,66.53
2023-05-06T08:56:03.191Z,65.57
2023-05-06T08:58:07.052Z,66.47
2023-05-06T09:00:11.133Z,66.28
2023-05-06T09:02:14.717Z,66.49
2023-05-06T09:04:17.739Z,66.84
2023-05-06T09:06:19.365Z,66.77
2023-05-06T09:08:21.033Z,67.96
2023-05-06T09:10:22.686Z,67.67
2023-05-06T09:12:24.700Z,67.04
2023-05-06T09:14:26.398Z,68.98
2023-05-06T09:16:32.245Z,66.84
2023-05-06T09:18:36.946Z,66.47
2023-05-06T09:20:41.270Z,66.01
2023-05-06T09:22:43.099Z,66.50
2023-05-06T09:24:45.006Z,66.41
2023-05-06T09:26:47.733Z,66.73
2023-05-06T09:28:51.851Z,66.71
2023-05-06T09:30:53.694Z,67.48
2023-05-06T09:32:55.362Z,67.68
2023-05-06T09:34:58.707Z,66.96
2023-05-06T09:37:01.358Z,67.13
2023-05-06T09:39:04.054Z,66.96
2023-05-06T09:41:07.096Z,66.39
2023-05-06T09:43:11.181Z,66.84
2023-05-06T09:45:16.125Z,67.46
2023-05-06T09:47:18.019Z,66.73
2023-05-06T09:49:20.080Z,67.84
2023-05-06T09:51:23.272Z,67.50
2023-05-06T09:53:25.427Z,67.90
2023-05-06T09:55:28.730Z,67.41
2023-05-06T09:57:32.334Z,67.30
2023-05-06T09:59:34.481Z,68.41
2023-05-06T10:01:37.970Z,66.86
2023-05-06T10:03:40.020Z,66.40
2023-05-06T10:05:42.142Z,66.83
2023-05-06T10:07:48.368Z,66.97
2023-05-06T10:09:50.672Z,67.38
2023-05-06T10:11:54.279Z,67.15
2023-05-06T10:13:56.340Z,66.68
2023-05-06T10:16:02.011Z,67.58
2023-05-06T10:18:05.631Z,67.15
2023-05-06T10:20:10.177Z,66.28
2023-05-06T10:22:19.868Z,66.13
2023-05-06T10:24:32.888Z,66.17
2023-05-06T10:26:36.914Z,67.44
2023-05-06T10:28:41.221Z,66.43
2023-05-06T10:30:44.285Z,67.42
2023-05-06T10:32:46.653Z,67.03
2023-05-06T10:34:57.023Z,65.87
2023-05-06T10:37:00.387Z,67.20
2023-05-06T10:39:03.341Z,68.30
2023-05-06T10:41:08.371Z,67.62
2023-05-06T10:43:24.422Z,66.66
2023-05-06T10:45:26.573Z,67.19
2023-05-06T10:47:28.214Z,68.04
2023-05-06T10:49:30.030Z,67.23
2023-05-06T10:51:32.446Z,66.93
2023-05-06T10:53:55.291Z,65.80
2023-05-06T10:56:08.979Z,66.04
2023-05-06T10:58:14.467Z,65.83
2023-05-06T11:00:17.057Z,67.19
2023-05-06T11:02:19.892Z,67.41
2023-05-06T11:04:23.372Z,67.63
2023-05-06T11:06:40.455Z,65.69
2023-05-06T11:08:44.661Z,67.82
2023-05-06T11:10:48.261Z,66.76
2023-05-06T11:12:52.480Z,67.52
2023-05-06T11:14:54.931Z,67.87
2023-05-06T11:16:58.499Z,67.42
2023-05-06T11:19:00.345Z,67.06
2023-05-06T11:21:37.926Z,65.82
2023-05-06T11:24:08.491Z,65.46
2023-05-06T11:26:11.772Z,66.84
2023-05-06T11:28:16.672Z,66.90
2023-05-06T11:30:19.037Z,66.15
2023-05-06T11:32:25.255Z,66.78
2023-05-06T11:34:28.284Z,67.91
2023-05-06T11:36:30.143Z,68.12
2023-05-06T11:38:41.872Z,66.74
2023-05-06T11:40:44.029Z,67.75
2023-05-06T11:42:46.068Z,67.77
2023-05-06T11:44:49.425Z,66.89
2023-05-06T11:46:51.194Z,67.48
2023-05-06T11:48:52.865Z,68.21
2023-05-06T11:50:55.054Z,67.58
2023-05-06T11:52:57.875Z,67.14
2023-05-06T11:55:02.750Z,67.21
2023-05-06T11:57:04.500Z,68.45
2023-05-06T11:59:06.359Z,67.76
2023-05-06T12:01:10.158Z,68.04
2023-05-06T12:03:14.318Z,67.45
2023-05-06T12:05:16.231Z,67.54
2023-05-06T12:07:19.386Z,67.74
2023-05-06T12:09:22.798Z,67.45
2023-05-06T12:11:24.499Z,68.82
2023-05-06T12:13:27.078Z,67.19
2023-05-06T12:15:30.621Z,67.59
2023-05-06T12:17:33.670Z,67.77
2023-05-06T12:19:35.881Z,67.29
2023-05-06T12:21:39.102Z,66.73
2023-05-06T12:23:50.741Z,66.68
2023-05-06T12:26:01.670Z,66.29
2023-05-06T12:28:13.912Z,66.88
2023-05-06T12:30:15.699Z,68.80
2023-05-06T12:32:17.369Z,68.65
2023-05-06T12:34:36.644Z,66.81
2023-05-06T12:36:43.063Z,67.65
2023-05-06T12:38:51.113Z,67.17
2023-05-06T12:40:54.239Z,67.14
2023-05-06T12:42:56.125Z,68.09
2023-05-06T12:44:57.921Z,67.46
2023-05-06T12:47:00.732Z,68.19
2023-05-06T12:49:03.582Z,68.41
2023-05-06T12:51:22.053Z,66.33
2023-05-06T12:53:32.200Z,66.45
2023-05-06T12:55:37.485Z,68.02
2023-05-06T12:57:39.113Z,66.95
2023-05-06T12:59:43.585Z,68.26
2023-05-06T13:01:45.481Z,67.23
2023-05-06T13:03:47.349Z,67.25
2023-05-06T13:05:48.973Z,68.15
2023-05-06T13:07:52.370Z,67.33
2023-05-06T13:09:53.939Z,68.08
2023-05-06T13:11:55.599Z,69.04
2023-05-06T13:13:57.417Z,69.81
2023-05-06T13:15:59.103Z,69.41
2023-05-06T13:18:00.847Z,68.86
2023-05-06T13:20:05.069Z,67.65
2023-05-06T13:22:07.143Z,67.82
2023-05-06T13:24:10.406Z,67.76
2023-05-06T13:26:12.034Z,67.82
2023-05-06T13:28:14.218Z,68.03
2023-05-06T13:30:17.754Z,68.60
2023-05-06T13:32:19.549Z,68.30
2023-05-06T13:34:21.384Z,68.18
2023-05-06T13:36:23.197Z,68.21
2023-05-06T13:38:24.811Z,68.50
2023-05-06T13:40:27.899Z,68.10
2023-05-06T13:42:29.965Z,68.60
2023-05-06T13:44:31.707Z,67.82
2023-05-06T13:46:33.389Z,67.39
2023-05-06T13:48:35.523Z,68.03
2023-05-06T13:50:37.364Z,67.26
2023-05-06T13:52:39.211Z,67.93
2023-05-06T13:54:40.995Z,67.71
2023-05-06T13:56:44.150Z,67.07
2023-05-06T13:58:46.135Z,67.37
2023-05-06T14:00:48.176Z,68.23
2023-05-06T14:02:50.031Z,68.14
2023-05-06T14:04:51.651Z,67.83
2023-05-06T14:06:53.592Z,67.27
2023-05-06T14:08:55.156Z,67.26
2023-05-06T14:10:58.154Z,67.32
2023-05-06T14:13:02.714Z,67.19
2023-05-06T14:15:06.838Z,67.30
2023-05-06T14:17:09.799Z,67.83
2023-05-06T14:19:11.869Z,67.87
2023-05-06T14:21:13.643Z,68.64
2023-05-06T14:23:15.426Z,67.21
2023-05-06T14:25:17.727Z,67.52
2023-05-06T14:27:21.105Z,68.36
2023-05-06T14:29:24.594Z,67.27
2023-05-06T14:31:26.477Z,68.13
2023-05-06T14:33:28.108Z,68.01
2023-05-06T14:35:30.204Z,68.12
2023-05-06T14:37:32.019Z,67.47
2023-05-06T14:39:33.714Z,67.72
2023-05-06T14:41:35.354Z,67.67
2023-05-06T14:43:38.661Z,67.99
2023-05-06T14:45:41.848Z,68.02
2023-05-06T14:47:44.064Z,67.00
2023-05-06T14:49:45.948Z,67.32
2023-05-06T14:51:47.874Z,67.23
2023-05-06T14:53:49.498Z,67.04
2023-05-06T14:55:51.341Z,66.48
2023-05-06T14:57:52.896Z,67.33
2023-05-06T14:59:54.516Z,67.73
2023-05-06T15:01:57.600Z,67.56
2023-05-06T15:03:59.459Z,68.23
2023-05-06T15:06:01.146Z,67.97
2023-05-06T15:08:03.045Z,68.03
2023-05-06T15:10:05.752Z,68.53
2023-05-06T15:12:07.936Z,66.91
2023-05-06T15:14:09.711Z,67.04
2023-05-06T15:16:11.603Z,67.06
2023-05-06T15:18:14.703Z,66.92
2023-05-06T15:20:16.760Z,66.54
2023-05-06T15:22:18.420Z,66.88
2023-05-06T15:24:20.784Z,66.36
2023-05-06T15:26:25.093Z,66.92
2023-05-06T15:28:26.732Z,67.04
2023-05-06T15:30:28.467Z,67.21
2023-05-06T15:32:30.461Z,66.82
2023-05-06T15:34:33.652Z,67.21
2023-05-06T15:36:36.040Z,66.35
2023-05-06T15:38:57.702Z,65.43
2023-05-06T15:41:01.402Z,66.67
2023-05-06T15:43:04.617Z,66.55
2023-05-06T15:45:07.712Z,67.00
2023-05-06T15:47:09.712Z,66.68
2023-05-06T15:51:17.892Z,67.28
2023-05-06T15:53:19.502Z,67.35
2023-05-06T15:55:21.208Z,66.73
2023-05-06T15:57:22.886Z,66.75
2023-05-06T15:59:24.405Z,67.02
2023-05-06T16:01:44.989Z,67.54
2023-05-06T16:03:48.533Z,67.23
2023-05-06T16:05:53.466Z,67.02
2023-05-06T16:07:56.735Z,66.25
2023-05-06T16:09:58.303Z,67.21
2023-05-06T16:11:59.900Z,66.67
2023-05-06T16:14:01.558Z,66.56
2023-05-06T16:16:03.276Z,67.08
2023-05-06T16:18:05.676Z,66.65
2023-05-06T16:20:08.917Z,66.86
2023-05-06T16:22:10.663Z,66.71
2023-05-06T16:24:13.800Z,67.03
2023-05-06T16:26:15.720Z,67.15
2023-05-06T16:28:17.844Z,66.90
2023-05-06T16:30:19.646Z,67.71
2023-05-06T16:32:21.664Z,66.74
2023-05-06T16:34:23.427Z,67.38
2023-05-06T16:36:25.198Z,66.96
2023-05-06T16:38:26.805Z,66.82
2023-05-06T16:40:30.176Z,66.74
2023-05-06T16:42:32.042Z,66.31
2023-05-06T16:44:33.802Z,67.06
2023-05-06T16:46:35.767Z,67.03
2023-05-06T16:48:37.477Z,67.19
2023-05-06T16:50:40.217Z,67.55
2023-05-06T16:52:42.276Z,66.92
2023-05-06T16:54:44.046Z,67.11
2023-05-06T16:56:52.244Z,66.88
2023-05-06T16:58:54.600Z,66.76
2023-05-06T17:00:56.397Z,67.08
2023-05-06T17:02:58.187Z,66.79
2023-05-06T17:05:00.185Z,67.23
2023-05-06T17:07:01.813Z,67.52
2023-05-06T17:09:03.527Z,67.37
2023-05-06T17:11:06.753Z,67.45
2023-05-06T17:13:10.000Z,67.04
2023-05-06T17:15:12.366Z,68.22
2023-05-06T17:17:14.206Z,67.44
2023-05-06T17:19:15.751Z,66.90
2023-05-06T17:21:17.904Z,67.31
2023-05-06T17:23:19.791Z,67.33
2023-05-06T17:25:21.411Z,67.08
2023-05-06T17:27:23.025Z,67.28
2023-05-06T17:29:26.189Z,68.30
2023-05-06T17:31:28.151Z,67.35
2023-05-06T17:33:30.165Z,66.76
2023-05-06T17:35:31.818Z,67.38
2023-05-06T17:37:33.479Z,67.83
2023-05-06T17:39:35.157Z,67.21
2023-05-06T17:41:36.753Z,67.87
2023-05-06T17:43:38.685Z,67.72
2023-05-06T17:45:41.945Z,68.01
2023-05-06T17:47:43.577Z,67.71
2023-05-06T17:49:45.465Z,67.46
2023-05-06T17:51:47.034Z,68.05
2023-05-06T17:53:48.884Z,67.84
2023-05-06T17:55:51.023Z,67.71
2023-05-06T17:57:53.184Z,67.64
2023-05-06T17:59:54.791Z,68.06
2023-05-06T18:01:58.689Z,67.82
2023-05-06T18:04:00.519Z,67.67
2023-05-06T18:06:02.529Z,68.00
2023-05-06T18:08:06.032Z,67.98
2023-05-06T18:10:08.836Z,67.24
2023-05-06T18:12:10.485Z,67.35
2023-05-06T18:14:12.343Z,66.80
2023-05-06T18:16:14.148Z,67.37
2023-05-06T18:18:17.312Z,67.17
2023-05-06T18:20:18.895Z,66.79
2023-05-06T18:22:20.789Z,66.98
2023-05-06T18:24:22.498Z,67.59
2023-05-06T18:26:42.721Z,67.27
2023-05-06T18:28:46.422Z,66.66
2023-05-06T18:30:48.350Z,67.12
2023-05-06T18:32:51.366Z,66.64
2023-05-06T18:34:55.623Z,67.78
2023-05-06T18:36:57.230Z,67.19
2023-05-06T18:38:58.992Z,67.12
2023-05-06T18:41:01.823Z,67.42
2023-05-06T18:43:03.676Z,67.09
2023-05-06T18:45:06.881Z,67.45
2023-05-06T18:47:09.075Z,67.31
2023-05-06T18:49:10.673Z,67.73
2023-05-06T18:51:15.441Z,67.69
2023-05-06T18:53:17.092Z,67.47
2023-05-06T18:55:18.769Z,67.56
2023-05-06T18:57:20.431Z,67.86
2023-05-06T18:59:22.020Z,67.39
2023-05-06T19:01:24.296Z,68.20
2023-05-06T19:03:26.036Z,67.57
2023-05-06T19:05:27.668Z,67.96
2023-05-06T19:07:30.810Z,67.54
2023-05-06T19:09:32.374Z,68.10
2023-05-06T19:11:34.055Z,68.46
2023-05-06T19:13:35.835Z,68.24
2023-05-06T19:15:37.532Z,67.95
2023-05-06T19:17:39.211Z,68.05
2023-05-06T19:19:40.755Z,68.57
2023-05-06T19:21:42.532Z,68.39
2023-05-06T19:23:45.769Z,68.20
2023-05-06T19:25:47.324Z,68.19
2023-05-06T19:27:48.889Z,67.93
2023-05-06T19:29:50.706Z,68.67
2023-05-06T19:31:52.284Z,68.37
2023-05-06T19:33:53.928Z,67.85
2023-05-06T19:35:55.476Z,68.03
2023-05-06T19:37:57.418Z,68.45
2023-05-06T19:40:00.579Z,68.91
2023-05-06T19:42:02.108Z,68.90
2023-05-06T19:44:03.847Z,68.27
2023-05-06T19:46:05.602Z,68.66
2023-05-06T19:48:07.447Z,68.62
2023-05-06T19:50:11.458Z,68.83
2023-05-06T19:52:13.444Z,69.07
2023-05-06T19:54:15.231Z,68.97
2023-05-06T19:56:18.327Z,69.15
2023-05-06T19:58:19.990Z,68.84
2023-05-06T20:00:22.137Z,69.13
2023-05-06T20:02:24.072Z,68.72
2023-05-06T20:04:25.927Z,69.15
2023-05-06T20:06:27.681Z,69.36
2023-05-06T20:08:29.405Z,69.20
2023-05-06T20:10:31.151Z,69.10
2023-05-06T20:12:34.454Z,69.54
2023-05-06T20:14:36.059Z,69.32
2023-05-06T20:16:39.205Z,69.03
2023-05-06T20:18:43.084Z,69.99
2023-05-06T20:20:44.689Z,69.59
2023-05-06T20:22:46.909Z,69.64
2023-05-06T20:24:49.922Z,69.61
2023-05-06T20:26:52.304Z,70.03
2023-05-06T20:28:56.615Z,69.61
2023-05-06T20:30:58.292Z,69.36
2023-05-06T20:33:00.049Z,69.68
2023-05-06T20:35:02.130Z,70.00
2023-05-06T20:37:03.733Z,69.87
2023-05-06T20:39:05.602Z,70.04
2023-05-06T20:41:07.581Z,70.40
2023-05-06T20:43:09.315Z,69.76
2023-05-06T20:45:14.553Z,69.34
2023-05-06T20:47:16.249Z,69.64
2023-05-06T20:49:18.721Z,69.91
2023-05-06T20:51:21.022Z,70.63
2023-05-06T20:53:22.768Z,70.20
2023-05-06T20:55:24.896Z,70.04
2023-05-06T20:57:26.776Z,70.58
2023-05-06T20:59:28.351Z,70.99
2023-05-06T21:01:32.360Z,69.98
2023-05-06T21:03:34.253Z,70.20
2023-05-06T21:05:36.633Z,70.01
2023-05-06T21:07:38.651Z,70.37
2023-05-06T21:09:40.229Z,70.80
2023-05-06T21:11:42.039Z,70.43
2023-05-06T21:13:43.606Z,70.37
2023-05-06T21:15:45.310Z,70.87
2023-05-06T21:17:49.225Z,70.99
2023-05-06T21:19:51.202Z,70.96
2023-05-06T21:21:53.025Z,71.17
2023-05-06T21:23:54.709Z,71.03
2023-05-06T21:25:56.257Z,71.08
2023-05-06T21:27:57.908Z,70.98
2023-05-06T21:29:59.524Z,70.74
2023-05-06T21:32:01.144Z,70.46
2023-05-06T21:34:04.300Z,70.95
2023-05-06T21:36:06.453Z,70.51
2023-05-06T21:38:08.110Z,70.19
2023-05-06T21:40:11.377Z,70.83
2023-05-06T21:42:13.206Z,70.75
2023-05-06T21:44:15.387Z,70.66
2023-05-06T21:46:17.236Z,70.16
2023-05-06T21:48:19.237Z,70.41
2023-05-06T21:50:22.602Z,70.19
2023-05-06T21:52:24.699Z,70.30
2023-05-06T21:54:26.332Z,70.21
2023-05-06T21:56:30.370Z,70.77
2023-05-06T21:58:32.312Z,70.47
2023-05-06T22:00:33.994Z,70.49
2023-05-06T22:02:35.731Z,70.72
2023-05-06T22:04:37.369Z,70.50
2023-05-06T22:06:40.739Z,69.96
2023-05-06T22:08:42.460Z,70.02
2023-05-06T22:10:44.051Z,69.78
2023-05-06T22:12:45.900Z,70.03
2023-05-06T22:14:47.484Z,70.20
2023-05-06T22:16:49.434Z,69.97
2023-05-06T22:18:51.835Z,70.10
2023-05-06T22:20:55.696Z,69.88
2023-05-06T22:22:59.012Z,70.17
2023-05-06T22:25:02.052Z,70.27
2023-05-06T22:27:03.917Z,69.66
2023-05-06T22:29:06.999Z,70.00
2023-05-06T22:31:08.734Z,70.20
2023-05-06T22:33:10.535Z,69.75
2023-05-06T22:35:12.499Z,69.92
2023-05-06T22:37:15.036Z,70.00
2023-05-06T22:39:18.494Z,70.16
2023-05-06T22:41:20.386Z,69.55
2023-05-06T22:43:22.513Z,69.29
2023-05-06T22:45:24.508Z,69.53
2023-05-06T22:47:27.266Z,69.33
2023-05-06T22:49:29.092Z,69.12
2023-05-06T22:51:30.687Z,69.47
2023-05-06T22:53:32.529Z,69.76
2023-05-06T22:55:37.959Z,69.41
2023-05-06T22:57:39.928Z,69.64
2023-05-06T22:59:41.813Z,69.67
2023-05-06T23:01:43.769Z,69.85
2023-05-06T23:03:45.804Z,70.04
2023-05-06T23:05:47.397Z,69.75
2023-05-06T23:07:49.188Z,70.45
2023-05-06T23:09:51.090Z,70.14
2023-05-06T23:11:54.212Z,70.36
2023-05-06T23:13:56.032Z,70.25
2023-05-06T23:15:57.591Z,69.87
2023-05-06T23:17:59.292Z,69.40
2023-05-06T23:20:01.230Z,70.04
2023-05-06T23:22:03.284Z,69.67
2023-05-06T23:24:05.207Z,70.01
2023-05-06T23:26:06.980Z,70.28
2023-05-06T23:28:10.153Z,70.23
2023-05-06T23:30:13.029Z,69.67
2023-05-06T23:32:14.685Z,69.85
2023-05-06T23:34:16.245Z,70.23
2023-05-06T23:36:18.092Z,69.48
2023-05-06T23:38:19.934Z,70.59
2023-05-06T23:40:22.976Z,69.91
2023-05-06T23:42:25.656Z,70.22
2023-05-06T23:44:29.040Z,70.33
2023-05-06T23:46:30.862Z,70.44
2023-05-06T23:48:33.782Z,70.35
2023-05-06T23:50:37.908Z,70.77
2023-05-06T23:52:39.794Z,70.58
2023-05-06T23:54:41.462Z,70.68
2023-05-06T23:56:43.550Z,70.28
2023-05-06T23:58:45.728Z,70.72
